GABS METAR and TAF | Updated Today

GABS METAR

Modibo Keita International Airport

Observation time: 21 min. ago

GABS 070800Z 05013KT CAVOK 24/M04 Q1015 NOSIG

Need help? Read our tutorial on how to read METARs or read the parsed version below.

Modibo Keita International Airport (GABS) METAR

  • Weather conditions on Tue, 07 Dec 2021 08:00:00 +0000 (21 min. ago):
  • Present conditions: Dry
  • Clouds: Clear skies
  • Visibility: Greater than 10 km
  • Wind: 50 degrees at 13 knots
  • Temperature: 24 celsius
  • Dew point: -4 celsius
  • Pressure: 1015 millibars
  • Remarks: None


Useful to know...

GABS TAF

Modibo Keita International Airport

TAF GABS 070500Z 0706/0812 06008G18KT 8000 NSC
Observation time: 3:21 hr. ago
Need help? Read our tutorial on how to read TAFs or read the parsed version below.

Parsed version of TAF for Modibo Keita International Airport (GABS)

  • From 07 December at 06:00 UTC, to day 08 of the month at 12:00 UTC
  • Clouds: No significant clouds are observed
  • Visibility: 8000 meters
  • Wind: 60 degrees at 8

Airports near GABS

No airports found within 100nm radius.